Time;durP1;ratioP1;P1;durP2;ratioP2;P2;SDS_P1;SDS_P2;PMS_P1;PMS_P2;Temp;Humidity;BMP_temperature;BMP_pressure;BME280_temperature;BME280_humidity;BME280_pressure;Samples;Min_cycle;Max_cycle;Signal;HPM_P1;HPM_P2
2023/10/01 00:00:57;;;;;;;16.95;9.60;;;;;;;;;;5073469;28;20396;-67
2023/10/01 00:03:22;;;;;;;15.30;9.25;;;;;;;;;;5062341;28;20029;-66
2023/10/01 00:05:48;;;;;;;16.95;9.38;;;;;;;;;;5068840;28;20024;-66
2023/10/01 00:08:13;;;;;;;16.88;9.15;;;;;;;;;;5072877;28;20111;-66
2023/10/01 00:10:41;;;;;;;15.55;9.13;;;;;;;;;;5072539;28;20064;-67
2023/10/01 00:13:07;;;;;;;18.05;9.10;;;;;;;;;;5063358;28;20117;-66
2023/10/01 00:15:32;;;;;;;18.67;9.63;;;;;;;;;;5063400;28;20108;-66
2023/10/01 00:17:57;;;;;;;18.75;9.80;;;;;;;;;;5073205;28;20099;-66
2023/10/01 00:20:24;;;;;;;16.58;10.15;;;;;;;;;;5072971;28;20470;-66
2023/10/01 00:22:56;;;;;;;21.50;11.13;;;;;;;;;;5071510;28;20021;-66
2023/10/01 00:25:23;;;;;;;24.35;11.90;;;;;;;;;;5072591;28;20035;-66
2023/10/01 00:27:49;;;;;;;18.75;10.55;;;;;;;;;;5072835;28;20016;-66
2023/10/01 00:30:14;;;;;;;21.23;11.50;;;;;;;;;;5089544;28;20027;-66
2023/10/01 00:32:40;;;;;;;19.33;11.10;;;;;;;;;;5093378;28;20042;-67
2023/10/01 00:35:06;;;;;;;19.05;10.50;;;;;;;;;;5093141;28;20020;-66
2023/10/01 00:37:35;;;;;;;18.38;10.80;;;;;;;;;;5092887;28;20418;-66
2023/10/01 00:40:01;;;;;;;16.83;10.27;;;;;;;;;;5093507;28;20024;-70
2023/10/01 00:42:28;;;;;;;19.30;11.45;;;;;;;;;;5092930;28;20153;-70
2023/10/01 00:44:53;;;;;;;21.45;10.88;;;;;;;;;;5060296;28;20036;-69
2023/10/01 00:47:22;;;;;;;17.90;10.52;;;;;;;;;;5067545;28;20029;-69
2023/10/01 00:49:48;;;;;;;21.90;10.30;;;;;;;;;;5061458;28;20040;-72
2023/10/01 00:52:14;;;;;;;19.60;10.63;;;;;;;;;;5072632;28;20074;-71
2023/10/01 00:54:40;;;;;;;17.27;10.00;;;;;;;;;;5072962;28;20540;-69
2023/10/01 00:57:05;;;;;;;18.17;10.10;;;;;;;;;;5067491;28;20107;-71
2023/10/01 00:59:32;;;;;;;18.52;9.95;;;;;;;;;;5072929;28;20025;-71
2023/10/01 01:01:58;;;;;;;19.38;9.80;;;;;;;;;;5067230;28;20026;-66
2023/10/01 01:04:23;;;;;;;17.13;9.95;;;;;;;;;;5094006;22;20613;-69
2023/10/01 01:06:50;;;;;;;18.88;10.73;;;;;;;;;;5087885;28;20054;-68
2023/10/01 01:09:15;;;;;;;22.75;11.60;;;;;;;;;;5089779;28;20396;-69
2023/10/01 01:11:40;;;;;;;21.42;11.30;;;;;;;;;;5090023;28;20107;-68
2023/10/01 01:14:07;;;;;;;20.98;11.43;;;;;;;;;;5082466;28;20081;-69
2023/10/01 01:16:33;;;;;;;19.20;11.98;;;;;;;;;;5096122;28;20052;-69
2023/10/01 01:19:00;;;;;;;22.30;11.93;;;;;;;;;;5094366;28;20020;-69
2023/10/01 01:21:25;;;;;;;20.95;12.45;;;;;;;;;;5096319;28;20440;-69
2023/10/01 01:23:51;;;;;;;24.37;13.13;;;;;;;;;;5080396;28;20029;-69
2023/10/01 01:26:22;;;;;;;23.95;13.23;;;;;;;;;;5096489;28;20020;-69
2023/10/01 01:28:48;;;;;;;22.95;13.45;;;;;;;;;;5086656;28;20028;-67
2023/10/01 01:31:14;;;;;;;25.63;13.63;;;;;;;;;;5076333;28;20034;-66
2023/10/01 01:33:40;;;;;;;23.87;13.97;;;;;;;;;;5076006;28;20020;-69
2023/10/01 01:36:11;;;;;;;26.13;14.20;;;;;;;;;;5076147;28;20028;-69
2023/10/01 01:38:44;;;;;;;30.10;14.80;;;;;;;;;;5092127;28;20459;-69
2023/10/01 01:41:12;;;;;;;26.10;14.13;;;;;;;;;;5096156;28;20379;-69
2023/10/01 01:43:38;;;;;;;27.80;14.97;;;;;;;;;;5094859;28;20473;-69
2023/10/01 01:46:08;;;;;;;24.17;14.17;;;;;;;;;;5096353;28;20028;-69
2023/10/01 01:48:37;;;;;;;27.17;15.10;;;;;;;;;;5096062;28;20490;-69
2023/10/01 01:51:03;;;;;;;31.63;15.90;;;;;;;;;;5096179;28;20458;-69
2023/10/01 01:53:34;;;;;;;28.40;15.80;;;;;;;;;;5095705;28;20095;-69
2023/10/01 01:55:59;;;;;;;27.38;16.08;;;;;;;;;;5095486;28;20024;-69
2023/10/01 01:58:25;;;;;;;28.07;15.80;;;;;;;;;;5095129;28;20065;-69
2023/10/01 02:01:08;;;;;;;27.83;16.63;;;;;;;;;;5095723;28;20020;-69
2023/10/01 02:03:40;;;;;;;25.43;16.17;;;;;;;;;;5089698;28;20128;-69
2023/10/01 02:06:08;;;;;;;;;;;;;;;;;;5076122;28;20051;-69
2023/10/01 02:08:54;;;;;;;31.17;17.37;;;;;;;;;;5075679;28;20355;-69
2023/10/01 02:11:20;;;;;;;30.80;16.60;;;;;;;;;;5075382;28;20059;-69
2023/10/01 02:13:46;;;;;;;28.57;16.27;;;;;;;;;;5075062;28;20036;-69
2023/10/01 02:18:56;;;;;;;33.92;16.83;;;;;;;;;;5074710;28;20035;-69
2023/10/01 02:24:14;;;;;;;34.38;17.92;;;;;;;;;;5032898;28;20039;-69
2023/10/01 02:26:40;;;;;;;34.13;18.07;;;;;;;;;;5032763;28;20034;-69
2023/10/01 02:29:06;;;;;;;34.87;19.30;;;;;;;;;;5032748;28;20095;-69
2023/10/01 02:31:34;;;;;;;36.10;19.13;;;;;;;;;;5032673;28;20111;-69
2023/10/01 02:34:00;;;;;;;36.20;18.73;;;;;;;;;;5032472;28;20051;-69
2023/10/01 02:36:25;;;;;;;34.20;19.67;;;;;;;;;;5032176;28;20042;-69
2023/10/01 02:38:53;;;;;;;31.80;18.37;;;;;;;;;;5032681;28;20025;-69
2023/10/01 02:41:25;;;;;;;39.27;20.10;;;;;;;;;;5032624;28;20030;-69
2023/10/01 02:43:52;;;;;;;39.28;20.60;;;;;;;;;;5032672;28;20414;-67
2023/10/01 02:46:26;;;;;;;40.23;20.17;;;;;;;;;;5032674;28;20088;-68
2023/10/01 02:48:51;;;;;;;37.73;20.17;;;;;;;;;;5032262;28;20469;-67
2023/10/01 02:51:18;;;;;;;34.27;20.03;;;;;;;;;;5031821;28;20220;-67
2023/10/01 02:54:01;;;;;;;37.27;20.00;;;;;;;;;;5031948;28;20036;-67
2023/10/01 02:56:33;;;;;;;36.70;20.20;;;;;;;;;;5031610;28;20244;-67
2023/10/01 02:59:07;;;;;;;;;;;;;;;;;;5033922;28;20036;-67
2023/10/01 03:01:34;;;;;;;40.13;20.03;;;;;;;;;;5056853;28;19915;-67
2023/10/01 03:03:59;;;;;;;39.23;21.37;;;;;;;;;;5073488;28;20495;-68
2023/10/01 03:06:25;;;;;;;42.87;20.60;;;;;;;;;;5074267;28;20031;-68
2023/10/01 03:11:22;;;;;;;39.47;20.43;;;;;;;;;;5074392;28;20036;-68
2023/10/01 03:13:48;;;;;;;35.70;18.97;;;;;;;;;;5073957;28;20511;-67
2023/10/01 03:19:04;;;;;;;38.53;20.60;;;;;;;;;;5073870;28;20024;-68
2023/10/01 03:24:13;;;;;;;39.57;21.27;;;;;;;;;;5077751;28;20028;-68
2023/10/01 03:26:44;;;;;;;41.60;22.50;;;;;;;;;;5073414;28;20468;-68
2023/10/01 03:29:22;;;;;;;35.47;21.60;;;;;;;;;;5073192;28;20039;-68
2023/10/01 03:31:53;;;;;;;38.70;21.43;;;;;;;;;;5073126;28;20032;-68
2023/10/01 03:34:30;;;;;;;38.10;21.85;;;;;;;;;;5073348;28;20476;-68
2023/10/01 03:37:00;;;;;;;45.23;24.37;;;;;;;;;;5073352;28;20056;-68
2023/10/01 03:39:28;;;;;;;44.43;24.93;;;;;;;;;;5073220;28;20389;-68
2023/10/01 03:42:03;;;;;;;39.20;24.20;;;;;;;;;;5071587;28;20013;-68
2023/10/01 03:47:12;;;;;;;45.87;26.07;;;;;;;;;;5072951;28;20089;-68
2023/10/01 03:49:43;;;;;;;43.77;26.07;;;;;;;;;;5072843;28;20024;-68
2023/10/01 03:52:09;;;;;;;43.03;25.58;;;;;;;;;;5073188;28;20024;-68
2023/10/01 03:57:18;;;;;;;46.13;26.37;;;;;;;;;;5073124;28;20082;-68
2023/10/01 03:59:53;;;;;;;47.43;26.97;;;;;;;;;;5073090;28;20028;-68
2023/10/01 04:05:18;;;;;;;47.73;28.13;;;;;;;;;;5072284;28;20538;-68
2023/10/01 04:07:43;;;;;;;44.73;26.83;;;;;;;;;;5057365;28;20031;-68
2023/10/01 04:10:19;;;;;;;47.63;28.20;;;;;;;;;;5073111;28;20095;-68
2023/10/01 04:12:49;;;;;;;47.37;26.10;;;;;;;;;;5072856;28;20539;-68
2023/10/01 04:15:27;;;;;;;48.20;26.87;;;;;;;;;;5081711;28;20103;-68
2023/10/01 04:18:09;;;;;;;46.03;27.27;;;;;;;;;;5078679;28;20060;-67
2023/10/01 04:20:36;;;;;;;51.30;28.40;;;;;;;;;;5072488;28;20024;-68
2023/10/01 04:23:04;;;;;;;48.30;28.27;;;;;;;;;;5067515;28;20480;-68
2023/10/01 04:25:38;;;;;;;48.17;28.90;;;;;;;;;;5072120;28;20021;-67
2023/10/01 04:28:08;;;;;;;49.67;28.47;;;;;;;;;;5072737;28;20024;-68
2023/10/01 04:30:36;;;;;;;45.07;27.40;;;;;;;;;;5072817;28;20028;-68
2023/10/01 04:33:16;;;;;;;49.23;27.47;;;;;;;;;;5073054;28;20097;-63
2023/10/01 04:35:51;;;;;;;48.47;27.40;;;;;;;;;;5074975;28;20433;-63
2023/10/01 04:38:18;;;;;;;42.07;27.13;;;;;;;;;;5086207;28;20589;-63
2023/10/01 04:40:46;;;;;;;42.87;26.03;;;;;;;;;;5081387;28;20370;-63
2023/10/01 04:43:11;;;;;;;44.63;26.87;;;;;;;;;;5089617;28;20225;-62
2023/10/01 04:45:36;;;;;;;43.90;26.10;;;;;;;;;;5076806;28;20149;-63
2023/10/01 04:48:10;;;;;;;43.43;26.27;;;;;;;;;;5072462;28;20029;-63
2023/10/01 04:50:37;;;;;;;39.30;25.37;;;;;;;;;;5071896;28;20032;-63
2023/10/01 04:53:07;;;;;;;46.03;26.90;;;;;;;;;;5075810;28;20460;-63
2023/10/01 04:55:40;;;;;;;43.10;25.53;;;;;;;;;;5076765;28;20523;-63
2023/10/01 04:58:06;;;;;;;37.17;24.53;;;;;;;;;;5076160;28;20034;-63
2023/10/01 05:00:33;;;;;;;39.73;25.50;;;;;;;;;;5076282;28;20051;-63
2023/10/01 05:02:59;;;;;;;40.33;24.73;;;;;;;;;;5075909;28;20035;-64
2023/10/01 05:05:27;;;;;;;42.15;24.30;;;;;;;;;;5080292;28;20101;-63
2023/10/01 05:07:56;;;;;;;42.33;25.17;;;;;;;;;;5088906;28;20029;-63
2023/10/01 05:10:22;;;;;;;41.03;24.37;;;;;;;;;;5084326;28;20029;-65
2023/10/01 05:12:47;;;;;;;38.43;23.43;;;;;;;;;;5075806;28;20700;-63
2023/10/01 05:15:21;;;;;;;41.13;24.87;;;;;;;;;;5075735;28;20111;-63
2023/10/01 05:17:46;;;;;;;42.23;23.67;;;;;;;;;;5060205;28;20016;-63
2023/10/01 05:20:12;;;;;;;42.40;23.93;;;;;;;;;;5075056;28;20052;-63
2023/10/01 05:22:46;;;;;;;36.80;23.40;;;;;;;;;;5075910;28;20016;-64
2023/10/01 05:25:18;;;;;;;40.20;23.53;;;;;;;;;;5074400;28;20099;-63
2023/10/01 05:27:44;;;;;;;40.80;24.37;;;;;;;;;;5061887;28;20024;-63
2023/10/01 05:30:32;;;;;;;40.73;23.30;;;;;;;;;;5076121;28;20392;-63
2023/10/01 05:32:54;;;;;;;40.50;22.70;;;;;;;;;;5074571;28;20021;-63
2023/10/01 05:35:22;;;;;;;38.93;22.90;;;;;;;;;;5076061;28;20043;-64
2023/10/01 05:37:47;;;;;;;38.97;23.33;;;;;;;;;;5074230;28;20020;-63
2023/10/01 05:40:15;;;;;;;38.00;22.23;;;;;;;;;;5073822;28;20017;-63
2023/10/01 05:42:41;;;;;;;36.27;22.10;;;;;;;;;;5075465;28;20016;-63
2023/10/01 05:45:14;;;;;;;38.50;22.53;;;;;;;;;;5075502;28;20465;-63
2023/10/01 05:47:50;;;;;;;35.83;21.42;;;;;;;;;;5075233;28;20032;-63
2023/10/01 05:50:18;;;;;;;35.30;22.07;;;;;;;;;;5075534;28;20025;-63
2023/10/01 05:52:45;;;;;;;34.22;21.95;;;;;;;;;;5082479;28;20467;-63
2023/10/01 05:55:15;;;;;;;36.58;21.60;;;;;;;;;;5095764;28;20118;-63
2023/10/01 05:57:44;;;;;;;33.38;20.63;;;;;;;;;;5080301;28;20086;-63
2023/10/01 06:00:28;;;;;;;37.65;21.08;;;;;;;;;;5075458;28;20020;-63
2023/10/01 06:03:02;;;;;;;37.33;20.73;;;;;;;;;;5075084;28;20048;-63
2023/10/01 06:05:33;;;;;;;34.40;20.05;;;;;;;;;;5074463;28;20412;-63
2023/10/01 06:08:13;;;;;;;37.00;20.75;;;;;;;;;;5075311;28;20020;-63
2023/10/01 06:10:46;;;;;;;38.00;21.15;;;;;;;;;;5074858;28;20350;-63
2023/10/01 06:13:13;;;;;;;36.58;20.48;;;;;;;;;;5074487;28;20376;-63
2023/10/01 06:15:39;;;;;;;34.78;19.98;;;;;;;;;;5087949;28;20051;-63
2023/10/01 06:18:05;;;;;;;33.17;19.67;;;;;;;;;;5077550;28;20055;-63
2023/10/01 06:20:31;;;;;;;32.92;19.70;;;;;;;;;;5074669;28;20013;-63
2023/10/01 06:22:59;;;;;;;33.22;18.67;;;;;;;;;;5074703;28;20040;-62
2023/10/01 06:25:47;;;;;;;30.67;18.90;;;;;;;;;;5074794;28;20032;-64
2023/10/01 06:28:20;;;;;;;32.10;18.73;;;;;;;;;;5060344;28;20013;-63
2023/10/01 06:30:45;;;;;;;34.80;19.10;;;;;;;;;;5065153;28;20024;-63
2023/10/01 06:33:24;;;;;;;34.55;18.17;;;;;;;;;;5074059;28;20158;-64
2023/10/01 06:38:41;;;;;;;29.52;17.73;;;;;;;;;;5073664;28;20024;-63
2023/10/01 06:41:13;;;;;;;32.88;17.95;;;;;;;;;;5074593;28;20025;-63
2023/10/01 06:43:44;;;;;;;;;;;;;;;;;;5069970;28;20380;-63
2023/10/01 06:46:11;;;;;;;32.78;17.70;;;;;;;;;;5073418;28;19908;-63
2023/10/01 06:48:39;;;;;;;30.38;17.95;;;;;;;;;;5073583;28;20028;-64
2023/10/01 06:51:05;;;;;;;31.25;16.15;;;;;;;;;;5070378;28;20021;-63
2023/10/01 06:53:45;;;;;;;27.27;16.35;;;;;;;;;;5073065;28;20436;-63
2023/10/01 06:56:10;;;;;;;26.08;15.77;;;;;;;;;;5073405;28;20385;-63
2023/10/01 06:58:36;;;;;;;27.85;16.02;;;;;;;;;;5073744;28;20027;-63
2023/10/01 07:01:02;;;;;;;23.25;15.02;;;;;;;;;;5074355;28;20133;-66
2023/10/01 07:03:30;;;;;;;31.60;15.43;;;;;;;;;;5073610;28;20377;-64
2023/10/01 07:05:57;;;;;;;25.88;15.48;;;;;;;;;;5072532;28;20486;-64
2023/10/01 07:08:37;;;;;;;28.95;15.80;;;;;;;;;;5073322;28;20104;-65
2023/10/01 07:11:11;;;;;;;29.23;16.17;;;;;;;;;;5073196;28;20020;-64
2023/10/01 07:13:36;;;;;;;29.17;16.88;;;;;;;;;;5070481;28;20031;-64
2023/10/01 07:16:02;;;;;;;29.73;17.25;;;;;;;;;;5074048;28;20461;-64
2023/10/01 07:18:29;;;;;;;30.80;18.35;;;;;;;;;;5073282;28;20052;-64
2023/10/01 07:21:00;;;;;;;30.83;17.02;;;;;;;;;;5073424;28;20456;-64
2023/10/01 07:23:25;;;;;;;38.33;17.85;;;;;;;;;;5073858;28;20024;-64
2023/10/01 07:25:59;;;;;;;28.60;14.50;;;;;;;;;;5073637;28;20028;-63
2023/10/01 07:28:24;;;;;;;28.13;14.25;;;;;;;;;;5072552;28;20036;-63
2023/10/01 07:30:56;;;;;;;31.35;14.25;;;;;;;;;;5071885;28;20104;-64
2023/10/01 07:33:21;;;;;;;27.92;13.25;;;;;;;;;;5070286;28;20496;-63
2023/10/01 07:35:58;;;;;;;25.55;13.15;;;;;;;;;;5072318;28;20057;-64
2023/10/01 07:38:25;;;;;;;27.83;13.05;;;;;;;;;;5073131;28;20044;-63
2023/10/01 07:40:52;;;;;;;26.00;12.63;;;;;;;;;;5072628;28;20053;-63
2023/10/01 07:43:18;;;;;;;25.10;12.15;;;;;;;;;;5071811;28;20095;-64
2023/10/01 07:45:55;;;;;;;22.55;11.50;;;;;;;;;;5073465;28;20044;-64
2023/10/01 07:48:21;;;;;;;20.27;11.27;;;;;;;;;;5072409;28;20017;-65
2023/10/01 07:50:47;;;;;;;22.20;11.73;;;;;;;;;;5071402;28;20028;-65
2023/10/01 07:53:13;;;;;;;21.08;10.95;;;;;;;;;;5072990;28;20029;-63
2023/10/01 07:55:38;;;;;;;22.55;10.90;;;;;;;;;;5073229;28;20016;-63
2023/10/01 08:00:47;;;;;;;20.85;10.30;;;;;;;;;;5072139;28;20027;-63
2023/10/01 08:05:48;;;;;;;20.02;10.13;;;;;;;;;;5072432;28;20020;-66
2023/10/01 08:08:35;;;;;;;24.60;9.90;;;;;;;;;;5072044;28;20484;-65
2023/10/01 08:11:37;;;;;;;16.25;8.82;;;;;;;;;;5069529;28;20032;-67
2023/10/01 08:13:49;;;;;;;17.73;9.40;;;;;;;;;;5072067;28;20032;-67
2023/10/01 08:16:15;;;;;;;21.60;8.77;;;;;;;;;;5073143;28;20074;-67
2023/10/01 08:18:42;;;;;;;20.05;8.93;;;;;;;;;;5072650;28;20024;-67
2023/10/01 08:21:15;;;;;;;19.80;8.75;;;;;;;;;;5072871;28;20037;-66
2023/10/01 08:23:45;;;;;;;19.85;8.30;;;;;;;;;;5072025;28;20027;-65
2023/10/01 08:28:57;;;;;;;18.65;8.15;;;;;;;;;;5055265;28;20028;-66
2023/10/01 08:34:22;;;;;;;15.45;8.13;;;;;;;;;;5072072;28;20115;-67
2023/10/01 08:36:48;;;;;;;16.90;8.00;;;;;;;;;;5072556;28;20514;-66
2023/10/01 08:39:20;;;;;;;18.98;8.15;;;;;;;;;;5072160;28;20529;-66
2023/10/01 08:41:50;;;;;;;16.88;7.80;;;;;;;;;;5052722;28;20070;-65
2023/10/01 08:44:20;;;;;;;16.30;8.45;;;;;;;;;;5071492;28;20476;-65
2023/10/01 08:46:45;;;;;;;13.93;6.78;;;;;;;;;;5071650;28;20066;-66
2023/10/01 08:49:23;;;;;;;18.13;7.30;;;;;;;;;;5072220;28;20024;-66
2023/10/01 08:51:49;;;;;;;17.42;7.47;;;;;;;;;;5078479;28;20046;-66
2023/10/01 08:54:15;;;;;;;16.45;6.97;;;;;;;;;;5068251;28;20025;-64
2023/10/01 08:56:42;;;;;;;15.73;7.30;;;;;;;;;;5063944;28;20415;-67
2023/10/01 08:59:23;;;;;;;19.20;7.05;;;;;;;;;;5072294;28;20372;-67
2023/10/01 09:01:50;;;;;;;16.65;7.80;;;;;;;;;;5070411;28;20492;-65
2023/10/01 09:04:29;;;;;;;16.60;7.28;;;;;;;;;;5070360;28;20044;-67
2023/10/01 09:07:03;;;;;;;18.40;7.25;;;;;;;;;;5063805;28;20100;-67
2023/10/01 09:09:51;;;;;;;14.13;6.15;;;;;;;;;;5069988;28;20028;-67
2023/10/01 09:12:18;;;;;;;14.68;7.20;;;;;;;;;;5063400;28;20024;-67
2023/10/01 09:14:46;;;;;;;15.95;7.25;;;;;;;;;;5068187;28;20418;-67
2023/10/01 09:17:24;;;;;;;17.02;7.18;;;;;;;;;;5068820;28;20024;-67
2023/10/01 09:19:51;;;;;;;16.13;7.85;;;;;;;;;;5068091;28;20460;-67
2023/10/01 09:22:21;;;;;;;14.18;6.50;;;;;;;;;;5061204;28;20388;-67
2023/10/01 09:25:05;;;;;;;18.05;7.32;;;;;;;;;;5068233;28;20016;-66
2023/10/01 09:27:30;;;;;;;18.05;7.00;;;;;;;;;;5067047;28;20025;-67
2023/10/01 09:30:27;;;;;;;15.63;6.45;;;;;;;;;;5069177;28;20400;-67
2023/10/01 09:33:04;;;;;;;13.52;6.47;;;;;;;;;;5066732;28;20028;-67
2023/10/01 09:35:40;;;;;;;17.00;7.18;;;;;;;;;;5068115;28;20032;-67
2023/10/01 09:38:12;;;;;;;15.90;6.60;;;;;;;;;;5071554;28;20108;-67
2023/10/01 09:40:41;;;;;;;14.00;6.45;;;;;;;;;;5061297;28;20021;-67
2023/10/01 09:43:18;;;;;;;16.17;6.60;;;;;;;;;;5055841;28;20049;-67
2023/10/01 09:45:46;;;;;;;13.00;6.25;;;;;;;;;;5055939;28;20024;-67
2023/10/01 09:48:28;;;;;;;14.02;6.43;;;;;;;;;;5056035;28;20495;-67
2023/10/01 09:50:57;;;;;;;14.15;6.10;;;;;;;;;;5055287;28;20013;-67
2023/10/01 09:53:24;;;;;;;14.55;5.88;;;;;;;;;;5055991;28;20017;-67
2023/10/01 09:55:55;;;;;;;13.68;6.35;;;;;;;;;;5061852;28;20025;-66
2023/10/01 09:58:24;;;;;;;14.35;5.90;;;;;;;;;;5075920;28;20020;-66
2023/10/01 10:01:01;;;;;;;16.77;5.97;;;;;;;;;;5075503;28;20016;-65
2023/10/01 10:03:27;;;;;;;11.13;5.45;;;;;;;;;;5075397;28;20553;-66
2023/10/01 10:05:53;;;;;;;16.13;6.10;;;;;;;;;;5074842;28;20028;-66
2023/10/01 10:08:26;;;;;;;14.20;6.20;;;;;;;;;;5074652;28;20039;-65
2023/10/01 10:10:55;;;;;;;14.52;5.93;;;;;;;;;;5074626;28;20391;-67
2023/10/01 10:13:33;;;;;;;11.95;5.72;;;;;;;;;;5068941;28;20020;-64
2023/10/01 10:16:00;;;;;;;16.00;5.85;;;;;;;;;;5074250;28;20017;-65
2023/10/01 10:18:25;;;;;;;12.05;5.45;;;;;;;;;;5074353;28;20483;-67
2023/10/01 10:20:57;;;;;;;12.70;6.07;;;;;;;;;;5075248;28;20024;-66
2023/10/01 10:23:29;;;;;;;13.82;5.85;;;;;;;;;;5073496;28;20027;-60
2023/10/01 10:26:12;;;;;;;15.80;5.68;;;;;;;;;;5073748;28;20032;-63
2023/10/01 10:28:51;;;;;;;13.82;5.47;;;;;;;;;;5073759;28;20528;-60
2023/10/01 10:31:29;;;;;;;13.10;5.25;;;;;;;;;;5064556;28;20025;-59
2023/10/01 10:34:21;;;;;;;13.10;5.68;;;;;;;;;;5070382;28;20503;-62
2023/10/01 10:40:02;;;;;;;12.60;5.82;;;;;;;;;;4998969;28;19917;-62
2023/10/01 10:42:33;;;;;;;14.40;6.43;;;;;;;;;;5000660;28;20505;-64
2023/10/01 10:45:42;;;;;;;11.80;5.50;;;;;;;;;;4993329;28;20022;-63
2023/10/01 10:47:58;;;;;;;16.98;6.25;;;;;;;;;;4995932;28;20367;-60
2023/10/01 10:50:45;;;;;;;14.27;6.18;;;;;;;;;;4999058;28;20441;-63
2023/10/01 10:53:20;;;;;;;15.43;6.00;;;;;;;;;;4992609;28;20097;-62
2023/10/01 10:56:00;;;;;;;13.75;5.82;;;;;;;;;;4985623;28;20026;-59
2023/10/01 10:58:26;;;;;;;14.38;5.78;;;;;;;;;;4993420;28;20025;-60
2023/10/01 11:00:52;;;;;;;15.40;5.97;;;;;;;;;;5001796;28;20034;-62
2023/10/01 11:03:38;;;;;;;14.88;5.65;;;;;;;;;;4992643;28;20026;-60
2023/10/01 11:06:15;;;;;;;15.23;5.95;;;;;;;;;;4998521;28;20084;-61
2023/10/01 11:08:49;;;;;;;15.73;5.50;;;;;;;;;;4988485;28;20494;-59
2023/10/01 11:11:18;;;;;;;15.13;6.40;;;;;;;;;;4996690;28;20073;-60
2023/10/01 11:13:45;;;;;;;13.52;5.35;;;;;;;;;;4987149;28;20026;-58
2023/10/01 11:16:19;;;;;;;16.30;6.07;;;;;;;;;;5058177;28;20063;-58
2023/10/01 11:18:45;;;;;;;14.07;5.28;;;;;;;;;;5068976;28;20353;-59
2023/10/01 11:21:13;;;;;;;15.55;6.22;;;;;;;;;;5067767;28;20085;-62
2023/10/01 11:23:38;;;;;;;15.27;5.25;;;;;;;;;;5069724;28;20029;-62
2023/10/01 11:26:06;;;;;;;13.75;5.97;;;;;;;;;;5066575;28;20020;-60
2023/10/01 11:28:41;;;;;;;16.90;6.20;;;;;;;;;;5072850;28;20400;-61
2023/10/01 11:31:28;;;;;;;15.57;5.80;;;;;;;;;;5067135;28;20026;-62
2023/10/01 11:34:26;;;;;;;15.48;5.75;;;;;;;;;;5068771;28;20469;-62
2023/10/01 11:36:56;;;;;;;15.80;5.88;;;;;;;;;;5058009;28;20028;-59
2023/10/01 11:40:01;;;;;;;16.80;6.43;;;;;;;;;;5070514;28;20043;-63
2023/10/01 11:42:26;;;;;;;15.05;5.95;;;;;;;;;;5070611;28;20064;-62
2023/10/01 11:44:52;;;;;;;16.98;6.00;;;;;;;;;;5072578;28;20115;-62
2023/10/01 11:47:31;;;;;;;14.93;6.00;;;;;;;;;;5066911;28;20028;-60
2023/10/01 11:50:09;;;;;;;16.50;5.85;;;;;;;;;;5071008;28;20028;-63
2023/10/01 11:52:36;;;;;;;14.88;5.57;;;;;;;;;;5070345;28;20024;-62
2023/10/01 11:55:16;;;;;;;13.85;5.30;;;;;;;;;;5069238;28;20020;-61
2023/10/01 11:57:51;;;;;;;14.10;5.78;;;;;;;;;;5060969;28;20521;-61
2023/10/01 12:00:19;;;;;;;14.35;5.35;;;;;;;;;;5068881;28;20025;-64
2023/10/01 12:02:44;;;;;;;14.65;5.45;;;;;;;;;;5060343;28;20060;-59
2023/10/01 12:05:13;;;;;;;14.20;5.80;;;;;;;;;;5070908;28;20040;-62
2023/10/01 12:07:43;;;;;;;13.20;5.22;;;;;;;;;;5073265;28;20472;-59
2023/10/01 12:10:31;;;;;;;15.20;5.63;;;;;;;;;;5073470;28;20044;-63
2023/10/01 12:12:54;;;;;;;11.80;4.68;;;;;;;;;;5072934;28;20021;-60
2023/10/01 12:15:35;;;;;;;13.18;4.97;;;;;;;;;;5063851;28;20044;-59
2023/10/01 12:18:17;;;;;;;14.63;4.70;;;;;;;;;;5067807;28;20468;-59
2023/10/01 12:20:54;;;;;;;16.27;5.18;;;;;;;;;;5069799;28;20016;-62
2023/10/01 12:23:21;;;;;;;14.90;5.60;;;;;;;;;;5069162;28;20029;-59
2023/10/01 12:26:00;;;;;;;13.60;4.97;;;;;;;;;;5058969;28;20070;-62
2023/10/01 12:28:27;;;;;;;12.05;4.70;;;;;;;;;;5070002;28;20028;-60
2023/10/01 12:30:58;;;;;;;12.77;4.75;;;;;;;;;;5066539;28;20143;-63
2023/10/01 12:33:40;;;;;;;12.68;5.15;;;;;;;;;;5071705;28;20013;-62
2023/10/01 12:36:31;;;;;;;13.35;4.80;;;;;;;;;;5073236;28;20074;-62
2023/10/01 12:47:00;;;;;;;12.10;5.07;;;;;;;;;;5065087;28;20325;-62
2023/10/01 12:49:26;;;;;;;11.52;4.53;;;;;;;;;;5065995;28;20473;-59
2023/10/01 12:51:54;;;;;;;14.65;5.07;;;;;;;;;;5066425;28;20039;-62
2023/10/01 12:54:25;;;;;;;13.65;5.07;;;;;;;;;;5070751;28;20017;-61
2023/10/01 12:57:03;;;;;;;;;;;;;;;;;;5069869;28;20024;-61
2023/10/01 12:59:41;;;;;;;13.13;5.03;;;;;;;;;;5066835;28;20425;-62
2023/10/01 13:02:42;;;;;;;11.82;5.10;;;;;;;;;;5062626;28;20029;-63
2023/10/01 13:05:20;;;;;;;15.70;5.00;;;;;;;;;;5069441;28;20049;-64
2023/10/01 13:07:46;;;;;;;14.07;5.20;;;;;;;;;;5059840;28;20032;-65
2023/10/01 13:10:14;;;;;;;12.00;5.00;;;;;;;;;;5069121;28;20028;-64
2023/10/01 13:12:49;;;;;;;12.68;5.05;;;;;;;;;;5072178;28;20020;-63
2023/10/01 13:15:14;;;;;;;12.50;4.95;;;;;;;;;;5068695;28;20070;-64
2023/10/01 13:17:48;;;;;;;12.43;4.38;;;;;;;;;;5071725;28;20477;-64
2023/10/01 13:20:28;;;;;;;12.80;4.68;;;;;;;;;;5076027;28;20047;-61
2023/10/01 13:23:06;;;;;;;14.93;4.95;;;;;;;;;;5072556;28;20078;-63
2023/10/01 13:25:33;;;;;;;11.85;4.60;;;;;;;;;;5070678;28;20032;-65
2023/10/01 13:28:01;;;;;;;14.32;4.82;;;;;;;;;;5074758;28;20024;-63
2023/10/01 13:31:03;;;;;;;14.20;4.90;;;;;;;;;;5070748;28;20432;-64
2023/10/01 13:33:19;;;;;;;12.57;4.82;;;;;;;;;;5068983;28;20032;-63
2023/10/01 13:35:52;;;;;;;10.98;4.80;;;;;;;;;;5067162;28;20028;-63
2023/10/01 13:38:27;;;;;;;11.57;4.60;;;;;;;;;;5071598;28;20025;-63
2023/10/01 14:10:53;;;;;;;12.15;4.50;;;;;;;;;;5068812;28;20040;-64
2023/10/01 14:13:29;;;;;;;11.57;4.18;;;;;;;;;;5065808;28;20066;-64
2023/10/01 14:16:11;;;;;;;12.10;4.72;;;;;;;;;;5067683;28;20032;-65
2023/10/01 14:18:36;;;;;;;11.20;3.97;;;;;;;;;;5071466;28;20048;-63
2023/10/01 14:21:12;;;;;;;10.15;3.92;;;;;;;;;;5071594;28;20051;-65
2023/10/01 14:23:42;;;;;;;11.32;4.30;;;;;;;;;;5068939;28;20024;-65
2023/10/01 14:26:12;;;;;;;8.53;3.43;;;;;;;;;;5071315;28;20041;-64
2023/10/01 14:28:38;;;;;;;9.82;3.72;;;;;;;;;;5073681;28;20026;-67
2023/10/01 14:31:05;;;;;;;9.60;3.95;;;;;;;;;;5071540;28;20511;-62
2023/10/01 14:33:30;;;;;;;9.90;4.05;;;;;;;;;;5065577;28;20025;-64
2023/10/01 14:36:03;;;;;;;9.48;3.72;;;;;;;;;;5069502;28;20078;-61
2023/10/01 14:38:37;;;;;;;9.63;3.70;;;;;;;;;;5070397;28;20032;-65
2023/10/01 14:41:04;;;;;;;10.18;4.07;;;;;;;;;;5073749;28;20492;-64
2023/10/01 14:43:29;;;;;;;11.45;3.58;;;;;;;;;;5071282;28;20040;-61
2023/10/01 14:45:54;;;;;;;8.90;3.47;;;;;;;;;;5070823;28;20064;-63
2023/10/01 14:48:22;;;;;;;9.20;3.97;;;;;;;;;;5071206;28;20441;-65
2023/10/01 14:50:48;;;;;;;12.35;4.00;;;;;;;;;;5073286;28;20020;-64
2023/10/01 14:53:13;;;;;;;11.15;4.03;;;;;;;;;;5073321;28;20479;-63
2023/10/01 14:55:42;;;;;;;10.38;4.45;;;;;;;;;;5073481;28;20100;-65
2023/10/01 14:58:15;;;;;;;9.13;3.53;;;;;;;;;;5065560;28;20027;-63
2023/10/01 15:00:49;;;;;;;9.82;3.88;;;;;;;;;;5065151;28;20017;-65
2023/10/01 15:03:15;;;;;;;10.80;3.95;;;;;;;;;;5068883;28;20575;-61
2023/10/01 15:05:40;;;;;;;9.70;3.80;;;;;;;;;;5073154;28;20052;-64
2023/10/01 15:08:06;;;;;;;9.48;3.67;;;;;;;;;;5072709;28;20427;-65
2023/10/01 15:10:31;;;;;;;9.15;3.90;;;;;;;;;;5069380;28;20021;-65
2023/10/01 15:12:56;;;;;;;10.77;4.32;;;;;;;;;;5071423;28;20024;-62
2023/10/01 15:15:22;;;;;;;9.18;3.72;;;;;;;;;;5073606;28;20077;-65
2023/10/01 15:17:52;;;;;;;9.65;4.15;;;;;;;;;;5071316;28;20020;-64
2023/10/01 15:20:27;;;;;;;14.18;4.20;;;;;;;;;;5071318;28;20020;-65
2023/10/01 15:22:55;;;;;;;10.63;4.10;;;;;;;;;;5067161;28;20484;-64
2023/10/01 15:25:21;;;;;;;10.25;4.30;;;;;;;;;;5072480;28;20043;-64
2023/10/01 15:27:47;;;;;;;10.00;4.28;;;;;;;;;;5071489;28;20127;-67
2023/10/01 15:30:21;;;;;;;13.30;5.00;;;;;;;;;;5080964;28;20048;-68
2023/10/01 15:32:55;;;;;;;9.63;3.92;;;;;;;;;;5072180;28;20373;-68
2023/10/01 15:35:22;;;;;;;11.30;4.43;;;;;;;;;;5068856;28;20026;-69
2023/10/01 15:37:48;;;;;;;11.63;4.72;;;;;;;;;;5069839;28;20476;-68
2023/10/01 15:40:25;;;;;;;11.32;4.40;;;;;;;;;;5065696;28;20024;-68
2023/10/01 15:42:53;;;;;;;12.38;4.55;;;;;;;;;;5062270;28;20013;-68
2023/10/01 15:45:19;;;;;;;9.38;4.30;;;;;;;;;;5088340;28;20040;-68
2023/10/01 15:47:47;;;;;;;12.27;5.13;;;;;;;;;;5072285;28;20449;-68
2023/10/01 15:50:16;;;;;;;12.00;4.82;;;;;;;;;;5071864;28;20111;-69
2023/10/01 15:52:46;;;;;;;11.95;4.88;;;;;;;;;;5072997;28;20027;-68
2023/10/01 15:55:21;;;;;;;13.32;5.18;;;;;;;;;;5072927;28;20457;-69
2023/10/01 15:58:24;;;;;;;13.40;5.03;;;;;;;;;;5069104;28;20021;-69
2023/10/01 16:00:42;;;;;;;13.05;4.97;;;;;;;;;;5069109;28;20123;-69
2023/10/01 16:03:08;;;;;;;14.65;4.93;;;;;;;;;;5065364;28;20063;-69